Time;durP1;ratioP1;P1;durP2;ratioP2;P2;SDS_P1;SDS_P2;PMS_P1;PMS_P2;Temp;Humidity;BMP_temperature;BMP_pressure;BME280_temperature;BME280_humidity;BME280_pressure;Samples;Min_cycle;Max_cycle;Signal;HPM_P1;HPM_P2
2023/10/13 00:00:40;;;;;;;2.00;1.58;;;16.30;99.90;;;;;;5077693;27;20061;-69
2023/10/13 00:03:14;;;;;;;2.92;2.50;;;16.20;99.90;;;;;;5077104;27;20418;-69
2023/10/13 00:05:41;;;;;;;1.48;1.17;;;16.20;99.90;;;;;;5078907;28;20385;-68
2023/10/13 00:08:08;;;;;;;0.85;0.50;;;16.20;99.90;;;;;;5076570;28;20043;-68
2023/10/13 00:10:34;;;;;;;0.55;0.38;;;16.30;99.90;;;;;;5076715;28;20043;-68
2023/10/13 00:16:17;;;;;;;1.38;1.27;;;16.30;99.90;;;;;;5075645;28;20445;-68
2023/10/13 00:18:34;;;;;;;2.47;0.77;;;16.30;99.90;;;;;;5077009;28;20548;-68
2023/10/13 00:21:00;;;;;;;0.32;0.32;;;16.30;99.90;;;;;;5078193;28;20130;-69
2023/10/13 00:23:28;;;;;;;0.50;0.50;;;16.30;99.90;;;;;;5084333;28;20035;-69
2023/10/13 00:25:57;;;;;;;0.75;0.75;;;16.30;99.90;;;;;;5111527;27;20122;-70
2023/10/13 00:28:26;;;;;;;0.77;0.77;;;16.40;99.90;;;;;;5079279;28;20036;-68
2023/10/13 00:30:59;;;;;;;1.13;0.38;;;16.30;99.90;;;;;;5078158;28;20461;-68
2023/10/13 00:33:25;;;;;;;1.75;1.50;;;16.30;99.90;;;;;;5110375;27;20036;-69
2023/10/13 00:35:53;;;;;;;1.33;1.33;;;16.30;99.90;;;;;;5079766;28;20032;-68
2023/10/13 00:38:19;;;;;;;3.85;0.68;;;16.30;99.90;;;;;;5074564;28;20396;-68
2023/10/13 00:40:52;;;;;;;0.90;0.75;;;16.40;99.90;;;;;;5078886;28;21301;-69
2023/10/13 00:45:57;;;;;;;1.02;0.63;;;16.40;99.90;;;;;;5077843;28;20066;-68
2023/10/13 00:48:34;;;;;;;1.45;0.85;;;16.30;99.90;;;;;;5081210;28;20118;-68
2023/10/13 00:51:07;;;;;;;0.45;0.45;;;16.30;99.90;;;;;;5113072;27;20052;-69
2023/10/13 00:53:34;;;;;;;1.30;1.08;;;16.40;99.90;;;;;;5088784;28;20050;-68
2023/10/13 00:56:07;;;;;;;1.02;0.93;;;16.40;99.90;;;;;;5083064;28;20044;-68
2023/10/13 00:58:34;;;;;;;0.22;0.22;;;16.40;99.90;;;;;;5075476;28;20062;-69
2023/10/13 01:01:21;;;;;;;2.58;0.95;;;16.30;99.90;;;;;;5072822;28;20058;-69
2023/10/13 01:03:55;;;;;;;1.70;1.13;;;16.40;99.90;;;;;;5115861;28;20078;-69
2023/10/13 01:06:25;;;;;;;0.65;0.65;;;16.40;99.90;;;;;;5086071;27;20137;-69
2023/10/13 01:09:17;;;;;;;3.63;1.77;;;16.40;99.90;;;;;;5083326;28;20051;-69
2023/10/13 01:11:46;;;;;;;1.00;0.93;;;16.30;99.90;;;;;;5078534;28;20062;-69
2023/10/13 01:14:12;;;;;;;0.47;0.47;;;16.40;99.90;;;;;;5080984;28;20096;-70
2023/10/13 01:16:43;;;;;;;1.15;0.70;;;16.40;99.90;;;;;;5078836;28;20478;-70
2023/10/13 01:19:14;;;;;;;1.35;0.70;;;16.40;99.90;;;;;;5076762;28;20459;-69
2023/10/13 01:21:47;;;;;;;2.22;0.98;;;16.40;99.90;;;;;;5080764;28;20071;-69
2023/10/13 01:24:18;;;;;;;0.80;0.60;;;16.40;99.90;;;;;;5113394;27;20078;-69
2023/10/13 01:26:44;;;;;;;0.85;0.77;;;16.40;99.90;;;;;;5114716;27;20222;-69
2023/10/13 01:29:13;;;;;;;0.63;0.63;;;16.40;99.90;;;;;;5081211;28;20047;-69
2023/10/13 01:31:45;;;;;;;2.05;1.55;;;16.40;99.90;;;;;;5111453;27;20039;-69
2023/10/13 01:34:21;;;;;;;1.60;0.77;;;16.40;99.90;;;;;;5089906;28;20084;-69
2023/10/13 01:36:50;;;;;;;1.55;1.45;;;16.40;99.90;;;;;;5087640;28;20041;-69
2023/10/13 01:39:17;;;;;;;2.60;1.80;;;16.40;99.90;;;;;;5105796;28;20534;-68
2023/10/13 01:41:43;;;;;;;3.13;2.42;;;16.40;99.90;;;;;;5088312;28;20065;-68
2023/10/13 01:44:12;;;;;;;3.08;0.63;;;16.40;99.90;;;;;;5084026;28;20130;-70
2023/10/13 01:46:38;;;;;;;2.13;1.52;;;16.40;99.90;;;;;;5088595;28;20036;-70
2023/10/13 01:49:04;;;;;;;2.15;0.95;;;16.40;99.90;;;;;;5113195;28;20036;-69
2023/10/13 01:51:30;;;;;;;1.02;0.85;;;16.40;99.90;;;;;;5081990;28;20043;-68
2023/10/13 01:53:58;;;;;;;0.50;0.50;;;16.40;99.90;;;;;;5118126;27;20039;-69
2023/10/13 01:56:24;;;;;;;4.13;1.20;;;16.40;99.90;;;;;;5085265;28;20085;-68
2023/10/13 01:58:51;;;;;;;2.30;2.05;;;16.40;99.90;;;;;;5114902;28;20035;-69
2023/10/13 02:01:26;;;;;;;1.30;1.15;;;16.40;99.90;;;;;;5084979;28;20043;-69
2023/10/13 02:04:06;;;;;;;5.03;0.77;;;16.40;99.90;;;;;;5089976;28;20043;-69
2023/10/13 02:06:33;;;;;;;1.77;1.67;;;16.40;99.90;;;;;;5097910;28;20044;-69
2023/10/13 02:09:25;;;;;;;0.65;0.65;;;16.40;99.90;;;;;;5080174;28;20040;-70
2023/10/13 02:11:54;;;;;;;3.30;1.05;;;16.40;99.90;;;;;;5084291;28;20031;-69
2023/10/13 02:14:22;;;;;;;1.13;0.88;;;16.40;99.90;;;;;;5085829;28;20039;-68
2023/10/13 02:16:50;;;;;;;0.40;0.40;;;16.40;99.90;;;;;;5112355;27;20036;-68
2023/10/13 02:19:17;;;;;;;1.17;0.82;;;16.40;99.90;;;;;;5090609;27;20047;-68
2023/10/13 02:21:44;;;;;;;0.55;0.55;;;16.40;99.90;;;;;;5081177;27;20052;-68
2023/10/13 02:24:17;;;;;;;1.00;0.85;;;16.40;99.90;;;;;;5120022;27;20508;-67
2023/10/13 02:26:43;;;;;;;0.90;0.85;;;16.40;99.90;;;;;;5088170;28;20071;-68
2023/10/13 02:29:12;;;;;;;2.58;1.73;;;16.40;99.90;;;;;;5085826;28;20044;-69
2023/10/13 02:31:40;;;;;;;0.60;0.60;;;16.40;99.90;;;;;;5083281;27;20043;-70
2023/10/13 02:34:11;;;;;;;1.17;0.93;;;16.40;99.90;;;;;;5091309;28;20035;-69
2023/10/13 02:36:51;;;;;;;1.65;1.20;;;16.40;99.90;;;;;;5083428;28;20054;-68
2023/10/13 02:39:24;;;;;;;0.40;0.40;;;16.40;99.90;;;;;;5087690;28;20043;-68
2023/10/13 02:41:50;;;;;;;0.60;0.60;;;16.40;99.90;;;;;;5086149;27;20387;-68
2023/10/13 02:44:26;;;;;;;1.95;1.80;;;16.40;99.90;;;;;;5092777;28;20092;-69
2023/10/13 02:46:55;;;;;;;1.27;1.17;;;16.40;99.90;;;;;;5086629;28;20410;-69
2023/10/13 02:49:26;;;;;;;1.65;0.65;;;16.40;99.90;;;;;;5114024;27;20079;-69
2023/10/13 02:51:55;;;;;;;1.30;0.60;;;16.40;99.90;;;;;;5071620;27;20128;-70
2023/10/13 02:54:21;;;;;;;0.90;0.75;;;16.40;99.90;;;;;;5108958;27;20058;-70
2023/10/13 02:56:56;;;;;;;0.80;0.68;;;16.40;99.90;;;;;;5090273;27;20039;-70
2023/10/13 03:02:25;;;;;;;1.77;1.58;;;16.40;99.90;;;;;;5076691;27;20085;-69
2023/10/13 03:04:52;;;;;;;0.50;0.50;;;16.40;99.90;;;;;;5117607;27;20036;-68
2023/10/13 03:07:23;;;;;;;0.73;0.73;;;16.40;99.90;;;;;;5087079;27;20039;-68
2023/10/13 03:09:55;;;;;;;0.80;0.60;;;16.40;99.90;;;;;;5089672;27;20048;-69
2023/10/13 03:12:21;;;;;;;2.45;1.35;;;16.30;99.90;;;;;;5104744;27;20051;-69
2023/10/13 03:14:47;;;;;;;0.63;0.63;;;16.40;99.90;;;;;;5114816;27;20112;-69
2023/10/13 03:17:18;;;;;;;2.72;0.85;;;16.40;99.90;;;;;;5089346;28;20040;-69
2023/10/13 03:19:51;;;;;;;1.55;0.80;;;16.40;99.90;;;;;;5081534;27;20123;-71
2023/10/13 03:22:24;;;;;;;0.88;0.73;;;16.40;99.90;;;;;;5079375;28;20142;-68
2023/10/13 03:24:53;;;;;;;0.70;0.55;;;16.40;99.90;;;;;;5117870;27;20044;-69
2023/10/13 03:27:39;;;;;;;1.85;1.60;;;16.40;99.90;;;;;;5082714;28;20044;-70
2023/10/13 03:30:13;;;;;;;1.63;1.52;;;16.40;99.90;;;;;;5083032;28;20031;-69
2023/10/13 03:32:43;;;;;;;1.20;1.17;;;16.40;99.90;;;;;;5080815;28;20625;-70
2023/10/13 03:35:24;;;;;;;1.20;0.65;;;16.40;99.90;;;;;;5085166;28;20055;-69
2023/10/13 03:37:57;;;;;;;1.08;1.00;;;16.40;99.90;;;;;;5113106;27;20031;-68
2023/10/13 03:45:39;;;;;;;0.93;0.60;;;16.40;99.90;;;;;;5084706;28;20101;-69
2023/10/13 03:48:09;;;;;;;2.22;1.27;;;16.40;99.90;;;;;;5079021;28;20032;-69
2023/10/13 03:50:57;;;;;;;4.70;1.65;;;16.40;99.90;;;;;;5079831;28;20059;-69
2023/10/13 03:53:25;;;;;;;1.23;1.13;;;16.40;99.90;;;;;;5086193;28;20043;-69
2023/10/13 03:56:07;;;;;;;0.32;0.20;;;16.30;99.90;;;;;;5110558;27;20040;-69
2023/10/13 03:58:34;;;;;;;0.82;0.80;;;16.30;99.90;;;;;;5087268;28;20078;-68
2023/10/13 04:01:00;;;;;;;0.43;0.38;;;16.30;99.90;;;;;;5109245;27;20104;-68
2023/10/13 04:03:32;;;;;;;0.98;0.68;;;16.30;99.90;;;;;;5085379;28;20063;-69
2023/10/13 04:06:06;;;;;;;0.22;0.22;;;16.30;99.90;;;;;;5109528;27;20572;-69
2023/10/13 04:09:51;;;;;;;0.68;0.68;;;16.30;99.90;;;;;;5073133;28;20482;-69
2023/10/13 04:12:18;;;;;;;0.80;0.60;;;16.30;99.90;;;;;;5077649;28;20048;-69
2023/10/13 04:17:15;;;;;;;0.85;0.85;;;16.30;99.90;;;;;;5106728;27;20139;-69
2023/10/13 04:28:15;;;;;;;2.22;0.75;;;16.20;99.90;;;;;;5080580;28;20047;-68
2023/10/13 04:33:35;;;;;;;0.50;0.50;;;16.20;99.90;;;;;;5114264;27;20093;-68
2023/10/13 04:36:14;;;;;;;0.63;0.63;;;16.20;99.90;;;;;;5082133;27;20274;-68
2023/10/13 04:39:00;;;;;;;0.45;0.43;;;16.30;99.90;;;;;;5074007;28;20032;-67
2023/10/13 04:49:35;;;;;;;0.35;0.20;;;16.20;99.90;;;;;;5109447;27;20150;-68
2023/10/13 05:51:46;;;;;;;0.90;0.68;;;16.10;99.90;;;;;;5089898;28;20039;-68
2023/10/13 06:29:38;;;;;;;0.30;0.30;;;16.20;99.90;;;;;;5094049;28;20044;-69
2023/10/13 06:32:10;;;;;;;0.30;0.30;;;16.20;99.90;;;;;;5094710;28;20040;-67
2023/10/13 06:34:45;;;;;;;0.77;0.17;;;16.20;99.90;;;;;;5085049;28;20482;-68
2023/10/13 06:37:30;;;;;;;0.20;0.20;;;16.10;99.90;;;;;;5093067;28;20100;-69
2023/10/13 06:39:57;;;;;;;0.20;0.20;;;16.20;99.90;;;;;;5085976;28;20036;-67
2023/10/13 06:42:28;;;;;;;0.93;0.60;;;16.30;99.90;;;;;;5086267;28;20047;-67
2023/10/13 06:44:55;;;;;;;0.20;0.20;;;16.30;99.90;;;;;;5087075;28;20448;-66
2023/10/13 06:47:24;;;;;;;0.55;0.55;;;16.30;99.90;;;;;;5081392;28;20042;-68
2023/10/13 06:49:56;;;;;;;0.65;0.65;;;16.40;99.90;;;;;;5127352;27;20098;-67
2023/10/13 06:52:22;;;;;;;1.67;0.98;;;16.40;99.90;;;;;;5094006;28;20123;-68
2023/10/13 06:54:53;;;;;;;0.30;0.30;;;16.40;99.90;;;;;;5092834;28;20481;-68
2023/10/13 06:57:21;;;;;;;1.95;0.85;;;16.40;99.90;;;;;;5079883;28;20043;-67
2023/10/13 06:59:47;;;;;;;0.43;0.43;;;16.50;99.90;;;;;;5087736;28;20499;-67
2023/10/13 07:02:22;;;;;;;2.05;1.63;;;16.50;99.90;;;;;;5089311;28;20039;-67
2023/10/13 07:04:48;;;;;;;0.30;0.30;;;16.50;99.90;;;;;;5072294;28;20086;-67
2023/10/13 07:07:15;;;;;;;1.05;1.00;;;16.50;99.90;;;;;;5086254;28;20131;-67
2023/10/13 07:09:55;;;;;;;0.45;0.45;;;16.50;99.90;;;;;;5086881;27;20035;-66
2023/10/13 07:12:26;;;;;;;1.50;0.57;;;16.50;99.90;;;;;;5085370;28;20040;-67
2023/10/13 07:14:53;;;;;;;0.77;0.50;;;16.50;99.90;;;;;;5094282;28;20040;-67
2023/10/13 07:17:25;;;;;;;0.40;0.40;;;16.50;99.90;;;;;;5087904;28;20040;-67
2023/10/13 07:19:53;;;;;;;0.98;0.80;;;16.40;99.90;;;;;;5106757;27;20051;-67
2023/10/13 07:22:19;;;;;;;0.90;0.45;;;16.50;99.90;;;;;;5091557;28;20366;-68
2023/10/13 07:24:50;;;;;;;0.55;0.40;;;16.50;99.90;;;;;;5093873;28;20053;-67
2023/10/13 07:27:23;;;;;;;1.00;0.80;;;16.50;99.90;;;;;;5091834;28;20112;-67
2023/10/13 07:29:56;;;;;;;1.25;0.60;;;16.50;99.90;;;;;;5092356;28;20112;-67
2023/10/13 07:32:26;;;;;;;0.22;0.20;;;16.50;99.90;;;;;;5085650;28;20067;-67
2023/10/13 07:34:55;;;;;;;0.20;0.10;;;16.50;99.90;;;;;;5090378;28;20040;-66
2023/10/13 07:37:29;;;;;;;0.38;0.38;;;16.50;99.90;;;;;;5076162;28;20728;-67
2023/10/13 07:39:58;;;;;;;0.40;0.40;;;16.60;99.90;;;;;;5090215;28;20398;-67
2023/10/13 07:42:31;;;;;;;0.50;0.50;;;16.60;99.90;;;;;;5086180;28;20032;-67
2023/10/13 07:44:58;;;;;;;0.70;0.38;;;16.60;99.90;;;;;;5084210;28;20050;-68
2023/10/13 07:47:26;;;;;;;0.22;0.22;;;16.60;99.90;;;;;;5086279;28;20043;-66
2023/10/13 07:49:52;;;;;;;0.95;0.40;;;16.60;99.90;;;;;;5091926;28;20122;-66
2023/10/13 07:54:49;;;;;;;0.38;0.22;;;16.60;99.90;;;;;;5118244;27;20046;-67
2023/10/13 07:57:15;;;;;;;13.98;0.63;;;16.70;99.90;;;;;;5080902;28;20745;-67
2023/10/13 07:59:49;;;;;;;0.38;0.38;;;16.60;99.90;;;;;;5122005;27;20044;-67
2023/10/13 08:02:47;;;;;;;1.30;0.65;;;16.70;99.90;;;;;;5088004;28;20035;-67
2023/10/13 08:05:00;;;;;;;0.65;0.65;;;16.60;99.90;;;;;;5089722;28;20375;-67
2023/10/13 08:07:28;;;;;;;0.17;0.17;;;16.60;99.90;;;;;;5075452;28;20054;-67
2023/10/13 08:09:54;;;;;;;0.82;0.73;;;16.70;99.90;;;;;;5091456;28;20075;-67
2023/10/13 08:12:21;;;;;;;0.10;0.10;;;16.60;99.90;;;;;;5092123;28;20043;-67
2023/10/13 08:14:47;;;;;;;0.17;0.17;;;16.70;99.90;;;;;;5093992;28;20047;-67
2023/10/13 08:17:16;;;;;;;0.10;0.10;;;16.70;99.90;;;;;;5073955;28;20048;-66
2023/10/13 08:19:50;;;;;;;1.45;0.30;;;16.70;99.90;;;;;;5109207;28;20066;-67
2023/10/13 08:45:20;;;;;;;0.20;0.20;;;17.00;99.90;;;;;;5127189;27;20482;-69
2023/10/13 08:53:31;;;;;;;0.30;0.30;;;17.20;99.90;;;;;;5083207;28;20047;-69
2023/10/13 09:09:58;;;;;;;0.88;0.88;;;17.60;99.90;;;;;;5090121;28;20047;-68
2023/10/13 09:15:06;;;;;;;1.10;0.32;;;17.70;99.90;;;;;;5127233;28;20474;-68
2023/10/13 09:17:39;;;;;;;4.82;0.55;;;17.70;99.90;;;;;;5086500;28;20094;-68
2023/10/13 09:21:16;;;;;;;2.08;1.30;;;17.70;99.90;;;;;;5088877;28;20430;-68
2023/10/13 09:25:53;;;;;;;0.30;0.20;;;17.70;99.90;;;;;;5090471;28;20270;-68
2023/10/13 09:28:22;;;;;;;3.50;1.33;;;17.80;99.90;;;;;;5083974;28;20390;-70
2023/10/13 09:30:56;;;;;;;0.85;0.85;;;17.80;99.90;;;;;;5124072;27;20402;-69
2023/10/13 09:33:32;;;;;;;8.25;1.05;;;17.80;99.90;;;;;;5087845;28;20035;-70
2023/10/13 09:36:07;;;;;;;0.50;0.50;;;17.90;99.90;;;;;;5089759;27;20043;-68
2023/10/13 09:38:34;;;;;;;0.93;0.70;;;17.90;99.90;;;;;;5083947;28;20035;-68
2023/10/13 09:41:53;;;;;;;1.17;0.52;;;18.00;99.90;;;;;;5120356;27;20553;-68
2023/10/13 09:43:52;;;;;;;5.05;1.15;;;18.00;99.90;;;;;;5080548;28;20047;-69
2023/10/13 09:46:23;;;;;;;0.57;0.52;;;18.00;99.90;;;;;;5088054;28;20040;-69
2023/10/13 09:49:04;;;;;;;0.68;0.68;;;18.00;99.90;;;;;;5085947;28;20042;-67
2023/10/13 09:51:31;;;;;;;1.08;0.73;;;18.10;99.90;;;;;;5087713;28;20040;-71
2023/10/13 09:54:06;;;;;;;0.20;0.20;;;18.10;99.90;;;;;;5121964;27;20048;-70
2023/10/13 09:56:51;;;;;;;2.00;1.13;;;18.10;99.90;;;;;;5088679;28;20100;-69
2023/10/13 09:59:24;;;;;;;3.90;1.50;;;18.10;99.90;;;;;;5089485;28;20044;-71
2023/10/13 10:01:51;;;;;;;;;;;18.20;99.90;;;;;;5093733;28;20490;-70
2023/10/13 10:04:18;;;;;;;0.63;0.63;;;18.20;99.90;;;;;;5083334;28;19928;-68
2023/10/13 10:06:53;;;;;;;1.25;1.15;;;18.30;99.90;;;;;;5093299;28;20047;-69
2023/10/13 10:09:25;;;;;;;1.52;0.68;;;18.30;99.90;;;;;;5082675;28;20047;-68
2023/10/13 10:12:38;;;;;;;1.75;0.65;;;18.30;99.90;;;;;;5078597;28;20032;-70
2023/10/13 10:15:13;;;;;;;3.33;1.02;;;18.40;99.90;;;;;;5089619;28;20047;-69
2023/10/13 10:17:41;;;;;;;2.83;1.17;;;18.50;99.90;;;;;;5092483;28;20145;-69
2023/10/13 10:20:14;;;;;;;0.10;0.10;;;18.60;99.90;;;;;;5090124;28;20058;-68
2023/10/13 10:22:44;;;;;;;1.85;0.50;;;18.70;99.90;;;;;;5091245;28;20047;-69
2023/10/13 10:25:25;;;;;;;0.35;0.35;;;18.70;99.90;;;;;;5124556;27;20416;-69
2023/10/13 10:27:58;;;;;;;8.57;2.47;;;18.70;99.90;;;;;;5089619;28;20043;-71
2023/10/13 10:30:28;;;;;;;0.70;0.70;;;18.80;99.90;;;;;;5120158;27;20501;-71
2023/10/13 10:33:03;;;;;;;1.38;0.80;;;18.80;99.90;;;;;;5083353;28;20043;-71
2023/10/13 10:35:32;;;;;;;2.38;1.45;;;18.80;99.90;;;;;;5112611;28;20137;-71
2023/10/13 10:38:38;;;;;;;3.03;1.42;;;18.80;99.90;;;;;;5110058;28;20043;-70
2023/10/13 10:41:04;;;;;;;2.83;0.75;;;18.80;99.90;;;;;;5094032;28;20043;-69
2023/10/13 10:43:42;;;;;;;1.75;0.45;;;18.80;99.90;;;;;;5119946;27;20121;-72
2023/10/13 10:46:27;;;;;;;0.38;0.38;;;18.80;99.90;;;;;;5094585;28;20134;-71
2023/10/13 10:49:00;;;;;;;0.93;0.93;;;18.80;99.90;;;;;;5092782;28;20062;-71
2023/10/13 10:51:31;;;;;;;0.70;0.32;;;18.70;99.90;;;;;;5093995;28;20031;-69
2023/10/13 10:54:10;;;;;;;1.23;0.85;;;18.80;99.90;;;;;;5123216;27;20047;-70
2023/10/13 10:56:37;;;;;;;1.27;0.65;;;18.80;99.90;;;;;;5092853;28;20443;-69
2023/10/13 10:59:04;;;;;;;1.38;1.27;;;18.80;99.90;;;;;;5091864;28;20096;-73
2023/10/13 11:01:38;;;;;;;0.77;0.65;;;18.80;99.90;;;;;;5074101;28;20040;-69
2023/10/13 11:04:09;;;;;;;1.13;0.90;;;18.80;99.90;;;;;;5089856;28;20031;-72
2023/10/13 11:06:45;;;;;;;1.10;1.00;;;18.80;99.90;;;;;;5093000;28;20032;-69
2023/10/13 11:11:53;;;;;;;3.92;2.03;;;18.90;99.90;;;;;;5074616;28;21679;-71
2023/10/13 11:14:29;;;;;;;1.13;0.98;;;19.00;99.90;;;;;;5091992;28;20496;-71
2023/10/13 11:17:00;;;;;;;7.72;2.45;;;18.90;99.90;;;;;;5091232;28;20493;-69
2023/10/13 11:19:40;;;;;;;2.70;1.33;;;18.90;99.90;;;;;;5089930;28;20040;-71
2023/10/13 11:22:29;;;;;;;1.25;1.13;;;18.90;99.90;;;;;;5090975;28;20039;-72
2023/10/13 11:24:59;;;;;;;1.73;1.63;;;18.90;99.90;;;;;;5092078;28;20054;-71
2023/10/13 11:27:43;;;;;;;1.10;1.10;;;19.00;99.90;;;;;;5085939;28;20043;-72
2023/10/13 11:30:14;;;;;;;0.50;0.50;;;18.90;99.90;;;;;;5087040;28;20043;-73
2023/10/13 11:32:41;;;;;;;1.50;1.40;;;19.10;99.90;;;;;;5092968;28;20031;-70
2023/10/13 11:35:20;;;;;;;0.90;0.90;;;19.20;99.90;;;;;;5091692;28;20105;-72
2023/10/13 11:37:56;;;;;;;8.98;2.22;;;19.30;99.90;;;;;;5091885;28;20044;-70
2023/10/13 11:40:43;;;;;;;1.17;1.08;;;19.30;99.90;;;;;;5092648;28;20134;-71
2023/10/13 11:43:17;;;;;;;1.08;0.80;;;19.30;99.90;;;;;;5088467;28;20785;-71
2023/10/13 11:48:38;;;;;;;1.95;0.60;;;19.30;99.90;;;;;;5086114;28;20044;-70
2023/10/13 11:51:08;;;;;;;26.73;2.63;;;19.30;99.90;;;;;;5081104;28;20035;-70
2023/10/13 11:53:38;;;;;;;1.95;1.40;;;19.30;99.90;;;;;;5090965;28;20418;-71
2023/10/13 11:56:09;;;;;;;2.10;1.40;;;19.20;99.90;;;;;;5092224;28;20502;-70
2023/10/13 11:58:35;;;;;;;1.20;1.03;;;19.20;99.90;;;;;;5087738;28;20040;-71
2023/10/13 12:01:19;;;;;;;1.63;1.45;;;19.20;99.90;;;;;;5090458;28;20297;-71
2023/10/13 12:11:53;;;;;;;2.20;1.00;;;19.20;99.90;;;;;;5086872;28;20035;-73
2023/10/13 12:14:21;;;;;;;3.03;1.05;;;19.20;99.90;;;;;;5116687;27;20382;-70
2023/10/13 12:16:53;;;;;;;0.90;0.75;;;19.20;99.90;;;;;;5086651;28;20040;-70
2023/10/13 12:19:23;;;;;;;;;;;19.20;99.90;;;;;;5085912;28;20253;-70
2023/10/13 12:21:49;;;;;;;3.17;0.93;;;19.20;99.90;;;;;;5090101;28;19998;-69
2023/10/13 12:24:30;;;;;;;0.90;0.90;;;19.20;99.90;;;;;;5085844;28;20067;-70
2023/10/13 12:26:57;;;;;;;1.15;0.77;;;19.20;99.90;;;;;;5097933;27;20059;-71
2023/10/13 12:29:29;;;;;;;1.23;1.13;;;19.20;99.90;;;;;;5090311;28;20122;-70
2023/10/13 12:32:13;;;;;;;5.32;2.60;;;19.20;99.90;;;;;;5091444;28;22460;-67
2023/10/13 12:51:21;;;;;;;2.13;1.30;;;19.50;99.90;;;;;;5091636;28;20039;-69
2023/10/13 12:53:51;;;;;;;2.78;1.35;;;19.50;99.90;;;;;;5091296;28;20478;-68
2023/10/13 12:56:17;;;;;;;10.25;1.60;;;19.50;99.90;;;;;;5091972;28;20462;-66
2023/10/13 12:58:53;;;;;;;4.40;1.88;;;19.50;99.90;;;;;;5092938;28;20273;-67
2023/10/13 13:01:20;;;;;;;3.05;2.35;;;19.50;99.90;;;;;;5089665;28;20309;-68
2023/10/13 13:03:46;;;;;;;11.68;0.60;;;19.50;99.90;;;;;;5106645;28;20071;-65
2023/10/13 13:06:17;;;;;;;2.30;0.85;;;19.40;99.90;;;;;;5092549;28;20024;-68
2023/10/13 13:08:44;;;;;;;6.03;3.13;;;19.40;99.90;;;;;;5073189;28;20044;-67
2023/10/13 13:11:10;;;;;;;1.02;0.70;;;19.50;99.90;;;;;;5090319;28;20302;-71
2023/10/13 13:13:36;;;;;;;1.85;0.90;;;19.50;99.90;;;;;;5091968;28;20040;-66
2023/10/13 13:16:03;;;;;;;2.60;2.25;;;19.60;99.90;;;;;;5087937;28;20403;-66
2023/10/13 13:18:29;;;;;;;1.13;1.02;;;19.60;99.90;;;;;;5092650;28;20500;-69
2023/10/13 13:20:55;;;;;;;1.77;1.55;;;19.60;99.90;;;;;;5090798;28;20043;-70
2023/10/13 13:23:26;;;;;;;1.95;1.55;;;19.60;99.90;;;;;;5092732;28;20072;-66
2023/10/13 13:25:52;;;;;;;4.88;1.00;;;19.50;99.90;;;;;;5090715;28;20032;-67
2023/10/13 13:28:18;;;;;;;1.05;0.70;;;19.40;99.90;;;;;;5124124;28;20046;-67
2023/10/13 13:30:46;;;;;;;3.28;1.77;;;19.30;99.90;;;;;;5087047;28;20421;-67
2023/10/13 13:33:11;;;;;;;2.70;0.52;;;19.30;99.90;;;;;;5092956;28;20040;-68
2023/10/13 13:35:43;;;;;;;3.25;1.58;;;19.20;99.90;;;;;;5108753;28;20047;-66
2023/10/13 13:38:30;;;;;;;2.05;0.68;;;19.10;99.90;;;;;;5092563;28;20126;-66
2023/10/13 13:40:55;;;;;;;0.50;0.50;;;19.00;99.90;;;;;;5087239;28;20062;-67
2023/10/13 13:46:09;;;;;;;1.48;1.38;;;18.90;99.90;;;;;;5089749;28;20092;-66
2023/10/13 13:48:38;;;;;;;1.50;1.17;;;18.80;99.90;;;;;;5092221;28;20035;-66
2023/10/13 13:51:06;;;;;;;0.40;0.40;;;18.70;99.90;;;;;;5105894;28;20039;-68
2023/10/13 13:53:34;;;;;;;4.57;1.70;;;18.70;99.90;;;;;;5091099;28;20421;-67
2023/10/13 13:56:03;;;;;;;11.10;1.83;;;18.60;99.90;;;;;;5091716;28;20048;-67
2023/10/13 13:58:30;;;;;;;1.65;1.40;;;18.60;99.90;;;;;;5090162;28;20040;-67
2023/10/13 14:01:15;;;;;;;5.82;1.15;;;18.60;99.90;;;;;;5087678;28;20071;-67
2023/10/13 14:03:45;;;;;;;0.47;0.47;;;18.60;99.90;;;;;;5084719;28;20032;-67
2023/10/13 14:06:34;;;;;;;2.38;2.08;;;18.60;99.90;;;;;;5121664;27;20044;-67
2023/10/13 14:09:02;;;;;;;6.25;2.30;;;18.60;99.90;;;;;;5095677;28;20055;-66
2023/10/13 14:16:50;;;;;;;1.75;0.82;;;18.60;99.90;;;;;;5078038;28;20394;-68
2023/10/13 14:19:19;;;;;;;1.25;1.05;;;18.60;99.90;;;;;;5093865;28;20043;-68
2023/10/13 14:21:53;;;;;;;2.03;1.88;;;18.60;99.90;;;;;;5079566;28;20046;-69
2023/10/13 14:24:27;;;;;;;1.08;0.98;;;18.60;99.90;;;;;;5094840;28;20091;-67
2023/10/13 14:26:56;;;;;;;0.65;0.65;;;18.60;99.90;;;;;;5084387;28;20055;-68
2023/10/13 14:29:26;;;;;;;2.63;2.42;;;18.70;99.90;;;;;;5094212;28;20386;-68
2023/10/13 14:31:52;;;;;;;1.13;1.02;;;18.60;99.90;;;;;;5112743;28;20036;-68
2023/10/13 14:34:17;;;;;;;1.38;0.88;;;18.70;99.90;;;;;;5094488;28;20386;-67
2023/10/13 14:36:48;;;;;;;1.08;1.08;;;18.60;99.90;;;;;;5091133;28;20042;-67
2023/10/13 14:39:14;;;;;;;2.45;0.65;;;18.60;99.90;;;;;;5094732;28;20120;-69
2023/10/13 14:41:40;;;;;;;1.60;0.93;;;18.70;99.90;;;;;;5076897;28;20495;-65
2023/10/13 14:44:06;;;;;;;0.57;0.57;;;18.70;99.90;;;;;;5095368;28;20367;-66
2023/10/13 14:46:35;;;;;;;5.35;0.80;;;18.70;99.90;;;;;;5093416;28;20193;-68
2023/10/13 14:49:02;;;;;;;2.88;1.15;;;18.60;99.90;;;;;;5074792;28;20050;-67
2023/10/13 14:51:28;;;;;;;0.85;0.60;;;18.60;99.90;;;;;;5093501;28;20035;-67
2023/10/13 14:53:56;;;;;;;0.85;0.85;;;18.60;99.90;;;;;;5093650;28;20053;-65
2023/10/13 14:56:26;;;;;;;6.88;1.42;;;18.60;99.90;;;;;;5093101;28;20044;-65
2023/10/13 14:58:52;;;;;;;7.20;1.05;;;18.50;99.90;;;;;;5095432;28;20402;-69
2023/10/13 15:01:20;;;;;;;5.45;1.98;;;18.50;99.90;;;;;;5075961;28;20482;-70
2023/10/13 15:03:48;;;;;;;1.60;1.50;;;18.40;99.90;;;;;;5093324;28;20405;-68
2023/10/13 15:06:24;;;;;;;0.73;0.73;;;18.40;99.90;;;;;;5076605;28;20051;-69
2023/10/13 15:08:51;;;;;;;1.05;0.95;;;18.30;99.90;;;;;;5075457;28;20083;-67
2023/10/13 15:11:19;;;;;;;3.92;1.90;;;18.20;99.90;;;;;;5088953;28;20482;-69
2023/10/13 15:13:48;;;;;;;6.93;4.45;;;18.10;99.90;;;;;;5122390;27;20035;-71
2023/10/13 15:16:19;;;;;;;3.35;1.38;;;18.10;99.90;;;;;;5092924;28;20043;-67
2023/10/13 15:18:52;;;;;;;1.45;1.05;;;18.10;99.90;;;;;;5086380;28;20071;-70
2023/10/13 15:21:30;;;;;;;1.10;0.95;;;18.00;99.90;;;;;;5088738;28;20040;-66
2023/10/13 15:23:59;;;;;;;1.67;1.27;;;18.00;99.90;;;;;;5118954;27;20039;-69
2023/10/13 15:26:25;;;;;;;1.65;0.90;;;18.00;99.90;;;;;;5082501;28;20048;-66
2023/10/13 15:28:55;;;;;;;6.63;3.22;;;17.90;99.90;;;;;;5120485;27;20064;-66
2023/10/13 15:34:06;;;;;;;2.45;1.10;;;17.90;99.90;;;;;;5081783;28;20147;-70
2023/10/13 15:36:33;;;;;;;0.82;0.82;;;17.90;99.90;;;;;;5085900;28;20123;-70
2023/10/13 15:38:59;;;;;;;2.00;1.13;;;17.80;99.90;;;;;;5085202;28;20041;-68
2023/10/13 15:41:28;;;;;;;2.25;1.58;;;17.90;99.90;;;;;;5085765;28;20489;-69
2023/10/13 15:43:55;;;;;;;0.77;0.47;;;17.80;99.90;;;;;;5085342;28;20036;-67
2023/10/13 15:46:22;;;;;;;0.50;0.50;;;17.90;99.90;;;;;;5085990;28;20130;-67
2023/10/13 15:48:48;;;;;;;3.30;1.50;;;17.80;99.90;;;;;;5069137;28;20130;-69
2023/10/13 15:51:14;;;;;;;5.60;2.80;;;17.80;99.90;;;;;;5079807;28;20081;-71
2023/10/13 15:53:40;;;;;;;3.58;1.33;;;17.80;99.90;;;;;;5091369;28;20044;-68
2023/10/13 15:56:11;;;;;;;2.35;2.20;;;17.80;99.90;;;;;;5090425;28;20510;-69
2023/10/13 15:58:47;;;;;;;0.75;0.75;;;17.80;99.90;;;;;;5123714;27;20043;-67
2023/10/13 16:01:13;;;;;;;0.85;0.50;;;17.70;99.90;;;;;;5086017;28;20051;-69
2023/10/13 16:03:51;;;;;;;5.88;2.22;;;17.70;99.90;;;;;;5090130;28;20031;-67
2023/10/13 16:06:17;;;;;;;0.22;0.22;;;17.70;99.90;;;;;;5115959;27;20338;-68
2023/10/13 16:08:43;;;;;;;1.55;1.00;;;17.70;99.90;;;;;;5080810;28;20150;-68
2023/10/13 16:11:14;;;;;;;0.82;0.82;;;17.80;99.90;;;;;;5085339;27;20122;-67
2023/10/13 16:13:58;;;;;;;11.80;2.13;;;17.70;99.90;;;;;;5114501;27;20058;-69
2023/10/13 16:16:24;;;;;;;1.17;0.80;;;17.70;99.90;;;;;;5084775;28;20409;-68
2023/10/13 16:18:51;;;;;;;0.80;0.63;;;17.70;99.90;;;;;;5110082;27;20089;-67
2023/10/13 16:21:17;;;;;;;0.70;0.40;;;17.70;99.90;;;;;;5085214;28;20035;-67
2023/10/13 16:23:51;;;;;;;0.47;0.45;;;17.70;99.90;;;;;;5107981;27;20167;-71
2023/10/13 16:26:25;;;;;;;0.65;0.50;;;17.70;99.90;;;;;;5086313;28;20136;-69
2023/10/13 16:28:58;;;;;;;2.20;0.35;;;17.70;99.90;;;;;;5113970;27;20066;-68
2023/10/13 16:31:27;;;;;;;0.63;0.63;;;17.70;99.90;;;;;;5083520;28;20036;-67
2023/10/13 16:33:54;;;;;;;0.65;0.60;;;17.70;99.90;;;;;;5115536;27;20036;-69
2023/10/13 16:36:22;;;;;;;1.38;0.70;;;17.70;99.90;;;;;;5085822;28;20406;-69
2023/10/13 16:38:48;;;;;;;2.28;0.82;;;17.70;99.90;;;;;;5111325;27;20032;-70
2023/10/13 16:41:15;;;;;;;2.30;1.95;;;17.70;99.90;;;;;;5083950;28;20088;-69
2023/10/13 16:43:41;;;;;;;1.70;1.33;;;17.70;99.90;;;;;;5118795;27;20032;-67
2023/10/13 16:46:11;;;;;;;3.83;1.38;;;17.70;99.90;;;;;;5112993;27;20035;-69
2023/10/13 16:48:38;;;;;;;2.72;1.02;;;17.70;99.90;;;;;;5089905;28;20035;-67
2023/10/13 16:51:05;;;;;;;4.80;0.68;;;17.70;99.90;;;;;;5081016;28;20048;-69